Hauptseite
METAR-TAF:

METAR-TAF

Flughäfen :

Middle Wallop, England

Middle Wallop Airfield

Breite: 51-09N, Länge: 001-34W, Höhe: 91 m

Beobachtung

Neuester Wetterbericht von vor 31 Minuten, um 00:50 UTC
Wind 8 kt aus Ost/Nordost
Temperatur 1°C
Luftfeuchtigkeit 80%
Luftdruck 1023 hPa
Sichtweite 10 km oder mehr

METAR: EGVP 250050Z AUTO 07008KT 9999 // NCD 01/M02 Q1023

Zeit: 01:21 (01:21 UTC)


TAF: fehlend

Wetterbeobachtungen und Prognosen von mehr als 4000 Flughäfen (METAR und TAF Bericht).

Die verfügbaren Stationen werden durch gelbe und rote Markierungen auf der Karte dargestellt.

Führen Sie die Maus auf sie, um den Namen der Station zu sehen.

Darauf klicken, um die Beobachtung von Wetterbeobachtungen und Prognosen zu sehen.

Um die Karte zu ändern : klicken Sie auf den grünen Tasten mit einem schwarzen Kreuz Zum Vergrößern, auf den grünen Button mit einem Gedankenstrich zu verkleinern, oder auf die grünen Pfeile für benachbarte Karten.


METAR-TAF: